createdAt,value
2023-03-20T00:03:46.966Z,82.38
2023-03-20T00:08:42.455Z,82.50
2023-03-20T00:13:35.837Z,82.81
2023-03-20T00:18:30.395Z,82.74
2023-03-20T00:23:23.562Z,82.91
2023-03-20T00:28:32.651Z,83.39
2023-03-20T00:33:27.180Z,83.76
2023-03-20T00:38:21.738Z,83.83
2023-03-20T00:43:16.343Z,83.55
2023-03-20T00:48:12.788Z,83.48
2023-03-20T00:53:06.172Z,83.95
2023-03-20T00:58:06.749Z,84.32
2023-03-20T01:03:00.883Z,84.59
2023-03-20T01:07:54.017Z,85.50
2023-03-20T01:12:49.063Z,85.79
2023-03-20T01:17:43.875Z,85.98
2023-03-20T01:22:37.769Z,85.93
2023-03-20T01:27:32.234Z,86.41
2023-03-20T01:32:25.516Z,86.96
2023-03-20T01:37:28.173Z,87.02
2023-03-20T01:42:26.288Z,87.43
2023-03-20T01:47:22.196Z,87.28
2023-03-20T01:52:16.377Z,87.49
2023-03-20T01:57:15.281Z,87.33
2023-03-20T02:02:15.577Z,87.12
2023-03-20T02:07:12.181Z,87.56
2023-03-20T02:12:14.233Z,88.19
2023-03-20T02:17:10.767Z,88.46
2023-03-20T02:22:31.748Z,88.48
2023-03-20T02:27:34.450Z,88.89
2023-03-20T02:32:58.907Z,89.19
2023-03-20T02:38:23.717Z,89.14
2023-03-20T02:43:22.526Z,89.08
2023-03-20T02:48:28.512Z,89.36
2023-03-20T02:53:32.500Z,89.74
2023-03-20T02:58:29.753Z,89.36
2023-03-20T03:03:30.070Z,88.98
2023-03-20T03:08:36.431Z,88.92
2023-03-20T03:13:33.749Z,88.70
2023-03-20T03:18:29.318Z,88.99
2023-03-20T03:23:28.124Z,88.91
2023-03-20T03:28:30.530Z,89.49
2023-03-20T03:33:26.449Z,89.60
2023-03-20T03:38:31.643Z,89.38
2023-03-20T03:43:34.396Z,89.33
2023-03-20T03:48:32.710Z,89.83
2023-03-20T03:53:32.734Z,90.05
2023-03-20T03:58:33.238Z,89.83
2023-03-20T04:03:33.033Z,90.10
2023-03-20T04:08:26.310Z,90.94
2023-03-20T04:13:19.571Z,91.17
2023-03-20T04:18:16.790Z,91.17
2023-03-20T04:23:11.533Z,90.16
2023-03-20T04:28:05.230Z,90.50
2023-03-20T04:33:07.650Z,90.58
2023-03-20T04:38:11.430Z,90.42
2023-03-20T04:43:06.062Z,90.21
2023-03-20T04:48:04.115Z,89.95
2023-03-20T04:52:58.408Z,89.82
2023-03-20T04:57:54.673Z,90.08
2023-03-20T05:02:48.448Z,90.01
2023-03-20T05:07:43.117Z,90.60
2023-03-20T05:12:41.459Z,89.91
2023-03-20T05:17:39.033Z,89.86
2023-03-20T05:22:41.145Z,90.47
2023-03-20T05:27:39.373Z,90.40
2023-03-20T05:33:03.269Z,91.07
2023-03-20T05:38:07.719Z,91.21
2023-03-20T05:43:16.865Z,91.00
2023-03-20T05:48:29.971Z,91.00
2023-03-20T05:53:42.399Z,91.43
2023-03-20T05:59:02.932Z,91.78
2023-03-20T06:04:07.267Z,90.95
2023-03-20T06:09:23.293Z,89.32
2023-03-20T06:14:17.237Z,88.21
2023-03-20T06:19:18.326Z,87.00
2023-03-20T06:24:12.464Z,86.50
2023-03-20T06:29:06.946Z,85.70
2023-03-20T06:34:01.294Z,84.47
2023-03-20T06:38:57.580Z,82.52
2023-03-20T06:43:52.920Z,81.49
2023-03-20T06:48:48.848Z,80.60
2023-03-20T06:53:44.277Z,79.73
2023-03-20T06:58:47.401Z,79.62
2023-03-20T07:03:41.400Z,77.19
2023-03-20T07:08:37.028Z,75.16
2023-03-20T07:13:32.654Z,75.01
2023-03-20T07:18:50.512Z,73.69
2023-03-20T07:23:57.204Z,72.77
2023-03-20T07:28:52.210Z,72.35
2023-03-20T07:33:52.535Z,70.15
2023-03-20T07:38:46.424Z,69.51
2023-03-20T07:43:39.859Z,70.26
2023-03-20T07:49:03.492Z,69.89
2023-03-20T07:53:56.771Z,68.43
2023-03-20T07:58:52.835Z,68.31
2023-03-20T08:04:02.915Z,66.96
2023-03-20T08:08:57.924Z,66.85
2023-03-20T08:13:56.607Z,67.93
2023-03-20T08:18:50.701Z,65.06
2023-03-20T08:23:44.195Z,65.65
2023-03-20T08:28:47.427Z,65.42
2023-03-20T08:33:42.949Z,64.93
2023-03-20T08:38:36.321Z,66.95
2023-03-20T08:43:34.180Z,66.12
2023-03-20T08:48:29.804Z,64.25
2023-03-20T08:53:23.157Z,62.58
2023-03-20T08:58:16.512Z,60.06
2023-03-20T09:03:15.968Z,56.50
2023-03-20T09:08:13.368Z,52.69
2023-03-20T09:13:23.753Z,52.44
2023-03-20T09:18:20.614Z,49.45
2023-03-20T09:23:15.402Z,47.73
2023-03-20T09:28:08.869Z,45.10
2023-03-20T09:33:02.229Z,46.73
2023-03-20T09:37:59.404Z,47.15
2023-03-20T09:43:01.867Z,46.77
2023-03-20T09:48:02.540Z,46.41
2023-03-20T09:53:07.306Z,47.38
2023-03-20T09:58:11.606Z,47.32
2023-03-20T10:03:06.364Z,47.19
2023-03-20T10:08:03.150Z,48.56
2023-03-20T10:13:08.181Z,48.56
2023-03-20T10:18:06.831Z,46.15
2023-03-20T10:23:08.647Z,46.64
2023-03-20T10:28:04.492Z,44.29
2023-03-20T10:33:13.470Z,45.18
2023-03-20T10:38:23.821Z,42.79
2023-03-20T10:43:21.521Z,44.96
2023-03-20T10:48:24.796Z,41.83
2023-03-20T10:53:29.119Z,40.11
2023-03-20T10:58:24.709Z,43.81
2023-03-20T11:03:30.659Z,41.07
2023-03-20T11:08:25.700Z,39.70
2023-03-20T11:13:29.490Z,40.58
2023-03-20T11:18:33.197Z,39.08
2023-03-20T11:23:28.186Z,37.92
2023-03-20T11:28:32.289Z,35.54
2023-03-20T11:33:28.098Z,35.68
2023-03-20T11:38:22.655Z,35.77
2023-03-20T11:43:19.740Z,33.94
2023-03-20T11:48:22.942Z,32.20
2023-03-20T11:53:24.850Z,31.33
2023-03-20T11:58:18.641Z,32.34
2023-03-20T12:03:40.588Z,33.75
2023-03-20T12:08:39.798Z,32.08
2023-03-20T12:13:38.934Z,32.39
2023-03-20T12:18:35.918Z,31.72
2023-03-20T12:23:59.382Z,32.42
2023-03-20T12:28:57.542Z,33.16
2023-03-20T12:33:56.073Z,30.96
2023-03-20T12:38:50.753Z,29.96
2023-03-20T12:44:04.470Z,31.16
2023-03-20T12:49:12.530Z,30.04
2023-03-20T12:54:23.748Z,28.76
2023-03-20T12:59:34.218Z,29.07
2023-03-20T13:04:56.688Z,28.48
2023-03-20T13:10:04.659Z,26.99
2023-03-20T13:15:06.469Z,28.45
2023-03-20T13:20:19.205Z,26.26
2023-03-20T13:25:26.358Z,26.46
2023-03-20T13:30:28.061Z,27.39
2023-03-20T13:35:34.326Z,25.63
2023-03-20T13:40:38.699Z,26.26
2023-03-20T13:45:37.758Z,27.02
2023-03-20T13:50:45.954Z,27.61
2023-03-20T13:55:54.673Z,26.65
2023-03-20T14:00:56.792Z,26.85
2023-03-20T14:05:51.022Z,29.61
2023-03-20T14:10:47.979Z,27.43
2023-03-20T14:15:54.789Z,29.37
2023-03-20T14:20:57.062Z,28.92
2023-03-20T14:25:56.065Z,27.95
2023-03-20T14:30:50.843Z,29.32
2023-03-20T14:35:46.623Z,27.79
2023-03-20T14:40:49.064Z,29.35
2023-03-20T14:45:46.441Z,29.99
2023-03-20T14:50:43.475Z,31.69
2023-03-20T14:55:51.398Z,34.40
2023-03-20T15:00:49.240Z,34.78
2023-03-20T15:05:42.987Z,34.88
2023-03-20T15:10:38.671Z,34.63
2023-03-20T15:15:32.652Z,35.74
2023-03-20T15:20:29.481Z,37.76
2023-03-20T15:25:24.786Z,39.17
2023-03-20T15:30:20.217Z,39.93
2023-03-20T15:35:16.089Z,41.09
2023-03-20T15:40:23.027Z,41.26
2023-03-20T15:45:28.746Z,41.89
2023-03-20T15:50:21.973Z,42.98
2023-03-20T15:55:20.831Z,43.34
2023-03-20T16:00:17.906Z,44.64
2023-03-20T16:05:14.574Z,44.92
2023-03-20T16:10:20.446Z,45.24
2023-03-20T16:15:18.058Z,45.68
2023-03-20T16:20:15.898Z,46.12
2023-03-20T16:25:46.876Z,47.26
2023-03-20T16:31:12.647Z,48.02
2023-03-20T16:36:12.964Z,49.33
2023-03-20T16:42:26.264Z,49.72
2023-03-20T16:54:57.506Z,51.79
2023-03-20T17:00:09.748Z,52.95
2023-03-20T17:05:10.323Z,52.09
2023-03-20T17:10:22.012Z,50.88
2023-03-20T17:15:24.453Z,52.08
2023-03-20T17:20:36.535Z,51.91
2023-03-20T17:25:49.368Z,52.16
2023-03-20T17:31:00.911Z,51.93
2023-03-20T17:36:11.062Z,52.43
2023-03-20T17:41:52.355Z,52.00
2023-03-20T17:46:59.198Z,52.54
2023-03-20T17:52:13.713Z,52.14
2023-03-20T17:57:25.153Z,52.27
2023-03-20T18:02:26.601Z,52.96
2023-03-20T18:07:21.164Z,52.90
2023-03-20T18:12:16.982Z,52.70
2023-03-20T18:17:18.202Z,53.11
2023-03-20T18:27:54.604Z,53.49
2023-03-20T18:39:13.537Z,54.46
2023-03-20T18:44:35.529Z,53.49
2023-03-20T18:50:36.923Z,53.76
2023-03-20T18:56:20.667Z,54.09
2023-03-20T19:01:44.273Z,53.98
2023-03-20T19:08:09.972Z,53.88
2023-03-20T19:18:50.981Z,57.16
2023-03-20T19:31:17.533Z,60.70
2023-03-20T19:41:48.465Z,64.03
2023-03-20T19:46:55.757Z,64.96
2023-03-20T19:52:05.597Z,65.32
2023-03-20T20:02:28.666Z,67.03
2023-03-20T20:13:00.181Z,68.74
2023-03-20T20:18:27.139Z,68.98
2023-03-20T20:23:40.715Z,68.64
2023-03-20T20:41:12.509Z,70.87
2023-03-20T20:46:17.909Z,71.19
2023-03-20T20:51:29.242Z,71.69
2023-03-20T20:56:23.896Z,72.25
2023-03-20T21:01:19.987Z,72.41
2023-03-20T21:06:13.322Z,72.61
2023-03-20T21:11:08.570Z,73.35
2023-03-20T21:16:02.049Z,73.16
2023-03-20T21:20:55.800Z,73.56
2023-03-20T21:25:49.617Z,72.55
2023-03-20T21:31:09.100Z,72.63
2023-03-20T21:35:57.888Z,72.14
2023-03-20T21:40:51.433Z,72.81
2023-03-20T21:51:49.381Z,72.99
2023-03-20T21:56:51.433Z,72.85
2023-03-20T22:07:32.831Z,72.74
2023-03-20T22:12:56.280Z,72.62
2023-03-20T22:28:15.777Z,73.89
2023-03-20T22:33:51.381Z,74.11
2023-03-20T22:48:33.820Z,74.30
2023-03-20T22:53:27.199Z,71.69
2023-03-20T22:58:20.656Z,72.87
2023-03-20T23:03:29.541Z,73.00
2023-03-20T23:08:28.494Z,73.90
2023-03-20T23:13:23.041Z,74.00
2023-03-20T23:18:16.476Z,74.61
2023-03-20T23:23:09.858Z,75.17
2023-03-20T23:28:04.929Z,76.81
2023-03-20T23:32:58.076Z,76.93
2023-03-20T23:37:51.315Z,76.47
2023-03-20T23:42:44.741Z,75.83
2023-03-20T23:47:44.842Z,76.42
2023-03-20T23:52:40.820Z,76.05
2023-03-20T23:57:42.175Z,75.90
